sensor_id;sensor_type;location;lat;lon;timestamp;P1;durP1;ratioP1;P2;durP2;ratioP2
35028;SDS011;35394;54.282;10.070;2023-12-29T00:00:25;13.07;;;3.40;;
35028;SDS011;35394;54.282;10.070;2023-12-29T00:00:56;13.30;;;3.38;;
35028;SDS011;35394;54.282;10.070;2023-12-29T00:01:30;13.70;;;3.70;;
35028;SDS011;35394;54.282;10.070;2023-12-29T00:02:01;12.35;;;3.38;;
35028;SDS011;35394;54.282;10.070;2023-12-29T00:02:33;13.27;;;3.38;;
35028;SDS011;35394;54.282;10.070;2023-12-29T00:03:03;12.87;;;3.50;;
35028;SDS011;35394;54.282;10.070;2023-12-29T00:03:35;10.77;;;3.45;;
35028;SDS011;35394;54.282;10.070;2023-12-29T00:04:06;13.07;;;3.20;;
35028;SDS011;35394;54.282;10.070;2023-12-29T00:04:36;16.98;;;3.83;;
35028;SDS011;35394;54.282;10.070;2023-12-29T00:05:07;17.23;;;3.67;;
35028;SDS011;35394;54.282;10.070;2023-12-29T00:05:38;12.43;;;3.50;;
35028;SDS011;35394;54.282;10.070;2023-12-29T00:06:08;12.27;;;3.30;;
35028;SDS011;35394;54.282;10.070;2023-12-29T00:06:39;14.50;;;3.40;;
35028;SDS011;35394;54.282;10.070;2023-12-29T00:07:11;11.00;;;3.25;;
35028;SDS011;35394;54.282;10.070;2023-12-29T00:07:42;13.23;;;3.40;;
35028;SDS011;35394;54.282;10.070;2023-12-29T00:08:12;14.10;;;3.60;;
35028;SDS011;35394;54.282;10.070;2023-12-29T00:08:43;12.10;;;3.17;;
35028;SDS011;35394;54.282;10.070;2023-12-29T00:09:14;13.93;;;3.58;;
35028;SDS011;35394;54.282;10.070;2023-12-29T00:09:44;9.07;;;3.10;;
35028;SDS011;35394;54.282;10.070;2023-12-29T00:10:15;11.07;;;3.13;;
35028;SDS011;35394;54.282;10.070;2023-12-29T00:10:45;12.60;;;3.22;;
35028;SDS011;35394;54.282;10.070;2023-12-29T00:11:17;11.32;;;3.00;;
35028;SDS011;35394;54.282;10.070;2023-12-29T00:11:49;8.02;;;2.97;;
35028;SDS011;35394;54.282;10.070;2023-12-29T00:12:21;10.30;;;3.05;;
35028;SDS011;35394;54.282;10.070;2023-12-29T00:12:51;10.32;;;3.30;;
35028;SDS011;35394;54.282;10.070;2023-12-29T00:13:22;11.03;;;2.97;;
35028;SDS011;35394;54.282;10.070;2023-12-29T00:13:54;11.07;;;3.22;;
35028;SDS011;35394;54.282;10.070;2023-12-29T00:14:25;10.93;;;3.10;;
35028;SDS011;35394;54.282;10.070;2023-12-29T00:14:56;11.25;;;3.28;;
35028;SDS011;35394;54.282;10.070;2023-12-29T00:15:26;9.48;;;3.00;;
35028;SDS011;35394;54.282;10.070;2023-12-29T00:15:57;9.37;;;2.83;;
35028;SDS011;35394;54.282;10.070;2023-12-29T00:16:27;10.60;;;2.95;;
35028;SDS011;35394;54.282;10.070;2023-12-29T00:16:58;10.37;;;3.07;;
35028;SDS011;35394;54.282;10.070;2023-12-29T00:17:29;10.70;;;2.95;;
35028;SDS011;35394;54.282;10.070;2023-12-29T00:18:00;9.40;;;3.00;;
35028;SDS011;35394;54.282;10.070;2023-12-29T00:18:31;9.00;;;2.97;;
35028;SDS011;35394;54.282;10.070;2023-12-29T00:19:01;10.23;;;2.97;;
35028;SDS011;35394;54.282;10.070;2023-12-29T00:19:33;10.13;;;2.70;;
35028;SDS011;35394;54.282;10.070;2023-12-29T00:20:04;8.98;;;2.60;;
35028;SDS011;35394;54.282;10.070;2023-12-29T00:20:34;7.75;;;2.78;;
35028;SDS011;35394;54.282;10.070;2023-12-29T00:21:06;9.40;;;2.70;;
35028;SDS011;35394;54.282;10.070;2023-12-29T00:21:37;11.02;;;2.65;;
35028;SDS011;35394;54.282;10.070;2023-12-29T00:22:08;10.87;;;2.70;;
35028;SDS011;35394;54.282;10.070;2023-12-29T00:22:38;8.07;;;2.63;;
35028;SDS011;35394;54.282;10.070;2023-12-29T00:23:10;8.77;;;2.67;;
35028;SDS011;35394;54.282;10.070;2023-12-29T00:23:40;10.70;;;2.90;;
35028;SDS011;35394;54.282;10.070;2023-12-29T00:24:11;7.47;;;2.67;;
35028;SDS011;35394;54.282;10.070;2023-12-29T00:24:42;8.48;;;2.70;;
35028;SDS011;35394;54.282;10.070;2023-12-29T00:25:12;9.00;;;2.60;;
35028;SDS011;35394;54.282;10.070;2023-12-29T00:25:44;7.67;;;2.37;;
35028;SDS011;35394;54.282;10.070;2023-12-29T00:26:17;9.23;;;2.60;;
35028;SDS011;35394;54.282;10.070;2023-12-29T00:26:49;10.88;;;2.90;;
35028;SDS011;35394;54.282;10.070;2023-12-29T00:27:19;12.63;;;2.63;;
35028;SDS011;35394;54.282;10.070;2023-12-29T00:27:50;9.57;;;2.78;;
35028;SDS011;35394;54.282;10.070;2023-12-29T00:28:20;9.03;;;2.70;;
35028;SDS011;35394;54.282;10.070;2023-12-29T00:28:53;7.78;;;2.60;;
35028;SDS011;35394;54.282;10.070;2023-12-29T00:29:24;9.27;;;2.40;;
35028;SDS011;35394;54.282;10.070;2023-12-29T00:29:55;9.98;;;2.40;;
35028;SDS011;35394;54.282;10.070;2023-12-29T00:30:26;10.27;;;2.92;;
35028;SDS011;35394;54.282;10.070;2023-12-29T00:30:56;11.07;;;2.70;;
35028;SDS011;35394;54.282;10.070;2023-12-29T00:31:27;8.43;;;2.60;;
35028;SDS011;35394;54.282;10.070;2023-12-29T00:31:59;7.57;;;2.50;;
35028;SDS011;35394;54.282;10.070;2023-12-29T00:32:32;8.27;;;2.40;;
35028;SDS011;35394;54.282;10.070;2023-12-29T00:33:03;9.98;;;2.50;;
35028;SDS011;35394;54.282;10.070;2023-12-29T00:33:34;7.17;;;2.30;;
35028;SDS011;35394;54.282;10.070;2023-12-29T00:34:05;9.88;;;2.60;;
35028;SDS011;35394;54.282;10.070;2023-12-29T00:34:35;9.20;;;2.30;;
35028;SDS011;35394;54.282;10.070;2023-12-29T00:35:07;9.10;;;2.50;;
35028;SDS011;35394;54.282;10.070;2023-12-29T00:35:38;8.00;;;2.67;;
35028;SDS011;35394;54.282;10.070;2023-12-29T00:36:15;5.95;;;2.28;;
35028;SDS011;35394;54.282;10.070;2023-12-29T00:36:46;8.32;;;2.45;;
35028;SDS011;35394;54.282;10.070;2023-12-29T00:37:17;9.02;;;2.60;;
35028;SDS011;35394;54.282;10.070;2023-12-29T00:37:49;8.05;;;2.28;;
35028;SDS011;35394;54.282;10.070;2023-12-29T00:38:20;11.50;;;2.60;;
35028;SDS011;35394;54.282;10.070;2023-12-29T00:38:51;9.83;;;2.40;;
35028;SDS011;35394;54.282;10.070;2023-12-29T00:39:21;7.45;;;2.25;;
35028;SDS011;35394;54.282;10.070;2023-12-29T00:39:58;8.70;;;2.42;;
35028;SDS011;35394;54.282;10.070;2023-12-29T00:40:29;8.10;;;2.47;;
35028;SDS011;35394;54.282;10.070;2023-12-29T00:41:00;7.50;;;2.30;;
35028;SDS011;35394;54.282;10.070;2023-12-29T00:41:32;8.55;;;2.20;;
35028;SDS011;35394;54.282;10.070;2023-12-29T00:42:04;6.30;;;2.22;;
35028;SDS011;35394;54.282;10.070;2023-12-29T00:42:38;7.35;;;2.30;;
35028;SDS011;35394;54.282;10.070;2023-12-29T00:43:10;7.15;;;2.25;;
35028;SDS011;35394;54.282;10.070;2023-12-29T00:43:40;5.75;;;1.92;;
35028;SDS011;35394;54.282;10.070;2023-12-29T00:44:11;7.82;;;2.38;;
35028;SDS011;35394;54.282;10.070;2023-12-29T00:44:41;7.80;;;2.50;;
35028;SDS011;35394;54.282;10.070;2023-12-29T00:45:12;7.97;;;2.15;;
35028;SDS011;35394;54.282;10.070;2023-12-29T00:45:43;9.48;;;2.60;;
35028;SDS011;35394;54.282;10.070;2023-12-29T00:46:14;6.67;;;2.10;;
35028;SDS011;35394;54.282;10.070;2023-12-29T00:46:45;8.73;;;2.38;;
35028;SDS011;35394;54.282;10.070;2023-12-29T00:47:16;7.38;;;2.20;;
35028;SDS011;35394;54.282;10.070;2023-12-29T00:47:49;8.63;;;2.30;;
35028;SDS011;35394;54.282;10.070;2023-12-29T00:48:21;5.85;;;2.17;;
35028;SDS011;35394;54.282;10.070;2023-12-29T00:48:52;6.50;;;2.17;;
35028;SDS011;35394;54.282;10.070;2023-12-29T00:49:23;8.07;;;2.53;;
35028;SDS011;35394;54.282;10.070;2023-12-29T00:49:54;7.10;;;2.40;;
35028;SDS011;35394;54.282;10.070;2023-12-29T00:50:24;7.47;;;2.20;;
35028;SDS011;35394;54.282;10.070;2023-12-29T00:50:56;8.80;;;2.55;;
35028;SDS011;35394;54.282;10.070;2023-12-29T00:51:28;7.40;;;2.53;;
35028;SDS011;35394;54.282;10.070;2023-12-29T00:51:58;8.03;;;2.33;;
35028;SDS011;35394;54.282;10.070;2023-12-29T00:52:30;7.78;;;2.28;;
35028;SDS011;35394;54.282;10.070;2023-12-29T00:53:00;8.07;;;2.57;;
35028;SDS011;35394;54.282;10.070;2023-12-29T00:53:31;6.28;;;2.15;;
35028;SDS011;35394;54.282;10.070;2023-12-29T00:54:03;8.88;;;2.40;;
35028;SDS011;35394;54.282;10.070;2023-12-29T00:54:33;7.90;;;2.40;;
35028;SDS011;35394;54.282;10.070;2023-12-29T00:55:04;9.32;;;2.53;;
35028;SDS011;35394;54.282;10.070;2023-12-29T00:55:35;10.25;;;2.67;;
35028;SDS011;35394;54.282;10.070;2023-12-29T00:56:12;7.80;;;2.20;;
35028;SDS011;35394;54.282;10.070;2023-12-29T00:56:49;7.43;;;2.28;;
35028;SDS011;35394;54.282;10.070;2023-12-29T00:57:20;8.02;;;2.30;;
35028;SDS011;35394;54.282;10.070;2023-12-29T00:57:50;6.67;;;2.13;;
35028;SDS011;35394;54.282;10.070;2023-12-29T00:58:21;7.38;;;2.22;;
35028;SDS011;35394;54.282;10.070;2023-12-29T00:58:51;7.78;;;2.30;;
35028;SDS011;35394;54.282;10.070;2023-12-29T00:59:22;8.00;;;2.30;;
35028;SDS011;35394;54.282;10.070;2023-12-29T00:59:53;7.50;;;2.40;;
35028;SDS011;35394;54.282;10.070;2023-12-29T01:00:24;7.10;;;2.40;;
35028;SDS011;35394;54.282;10.070;2023-12-29T01:00:55;7.47;;;2.50;;
35028;SDS011;35394;54.282;10.070;2023-12-29T01:01:25;9.15;;;2.50;;
35028;SDS011;35394;54.282;10.070;2023-12-29T01:01:56;6.50;;;2.00;;
35028;SDS011;35394;54.282;10.070;2023-12-29T01:02:26;8.60;;;2.38;;
35028;SDS011;35394;54.282;10.070;2023-12-29T01:02:57;8.05;;;2.30;;
35028;SDS011;35394;54.282;10.070;2023-12-29T01:03:28;6.90;;;2.30;;
35028;SDS011;35394;54.282;10.070;2023-12-29T01:03:59;8.50;;;2.40;;
35028;SDS011;35394;54.282;10.070;2023-12-29T01:04:29;7.60;;;2.50;;
35028;SDS011;35394;54.282;10.070;2023-12-29T01:05:00;8.63;;;2.47;;
35028;SDS011;35394;54.282;10.070;2023-12-29T01:05:30;10.90;;;2.70;;
35028;SDS011;35394;54.282;10.070;2023-12-29T01:06:01;8.02;;;2.55;;
35028;SDS011;35394;54.282;10.070;2023-12-29T01:06:32;8.55;;;2.72;;
35028;SDS011;35394;54.282;10.070;2023-12-29T01:07:03;8.15;;;2.60;;
35028;SDS011;35394;54.282;10.070;2023-12-29T01:07:34;9.10;;;2.83;;
35028;SDS011;35394;54.282;10.070;2023-12-29T01:08:04;6.80;;;2.40;;
35028;SDS011;35394;54.282;10.070;2023-12-29T01:08:35;6.85;;;2.63;;
35028;SDS011;35394;54.282;10.070;2023-12-29T01:09:07;8.25;;;2.50;;
35028;SDS011;35394;54.282;10.070;2023-12-29T01:09:41;9.07;;;2.70;;
35028;SDS011;35394;54.282;10.070;2023-12-29T01:10:12;6.85;;;2.40;;
35028;SDS011;35394;54.282;10.070;2023-12-29T01:10:42;7.50;;;2.60;;
35028;SDS011;35394;54.282;10.070;2023-12-29T01:11:13;8.23;;;2.83;;
35028;SDS011;35394;54.282;10.070;2023-12-29T01:11:43;9.17;;;2.80;;
35028;SDS011;35394;54.282;10.070;2023-12-29T01:12:14;7.97;;;2.78;;
35028;SDS011;35394;54.282;10.070;2023-12-29T01:12:45;8.80;;;2.70;;
35028;SDS011;35394;54.282;10.070;2023-12-29T01:13:16;9.50;;;2.80;;
35028;SDS011;35394;54.282;10.070;2023-12-29T01:13:47;7.55;;;2.63;;
35028;SDS011;35394;54.282;10.070;2023-12-29T01:14:18;9.10;;;2.60;;
35028;SDS011;35394;54.282;10.070;2023-12-29T01:14:48;8.60;;;2.80;;
35028;SDS011;35394;54.282;10.070;2023-12-29T01:15:19;8.30;;;2.75;;
35028;SDS011;35394;54.282;10.070;2023-12-29T01:15:50;9.07;;;3.08;;
35028;SDS011;35394;54.282;10.070;2023-12-29T01:16:21;10.30;;;2.92;;
35028;SDS011;35394;54.282;10.070;2023-12-29T01:16:52;6.82;;;2.72;;
35028;SDS011;35394;54.282;10.070;2023-12-29T01:17:23;7.13;;;2.50;;
35028;SDS011;35394;54.282;10.070;2023-12-29T01:17:54;10.70;;;2.78;;
35028;SDS011;35394;54.282;10.070;2023-12-29T01:18:24;7.80;;;2.60;;
35028;SDS011;35394;54.282;10.070;2023-12-29T01:18:56;8.90;;;2.90;;
35028;SDS011;35394;54.282;10.070;2023-12-29T01:19:27;9.52;;;2.92;;
35028;SDS011;35394;54.282;10.070;2023-12-29T01:19:57;7.68;;;2.70;;
35028;SDS011;35394;54.282;10.070;2023-12-29T01:20:28;10.48;;;2.90;;
35028;SDS011;35394;54.282;10.070;2023-12-29T01:20:59;6.73;;;2.73;;
35028;SDS011;35394;54.282;10.070;2023-12-29T01:21:30;8.95;;;3.10;;
35028;SDS011;35394;54.282;10.070;2023-12-29T01:22:03;9.13;;;2.90;;
35028;SDS011;35394;54.282;10.070;2023-12-29T01:22:34;8.93;;;3.10;;
35028;SDS011;35394;54.282;10.070;2023-12-29T01:23:05;9.02;;;3.00;;
35028;SDS011;35394;54.282;10.070;2023-12-29T01:23:36;9.55;;;3.08;;
35028;SDS011;35394;54.282;10.070;2023-12-29T01:24:06;11.25;;;3.30;;
35028;SDS011;35394;54.282;10.070;2023-12-29T01:24:38;7.07;;;2.80;;
35028;SDS011;35394;54.282;10.070;2023-12-29T01:25:09;8.65;;;2.90;;
35028;SDS011;35394;54.282;10.070;2023-12-29T01:25:40;10.00;;;3.00;;
35028;SDS011;35394;54.282;10.070;2023-12-29T01:26:10;8.35;;;3.00;;
35028;SDS011;35394;54.282;10.070;2023-12-29T01:26:41;11.43;;;3.10;;
35028;SDS011;35394;54.282;10.070;2023-12-29T01:27:12;9.15;;;3.00;;
35028;SDS011;35394;54.282;10.070;2023-12-29T01:27:43;7.45;;;3.15;;
35028;SDS011;35394;54.282;10.070;2023-12-29T01:28:15;9.15;;;3.00;;
35028;SDS011;35394;54.282;10.070;2023-12-29T01:28:47;7.93;;;2.97;;
35028;SDS011;35394;54.282;10.070;2023-12-29T01:29:17;6.40;;;2.78;;
35028;SDS011;35394;54.282;10.070;2023-12-29T01:29:49;7.57;;;2.90;;
35028;SDS011;35394;54.282;10.070;2023-12-29T01:30:19;9.23;;;3.20;;
35028;SDS011;35394;54.282;10.070;2023-12-29T01:30:50;9.18;;;3.03;;
35028;SDS011;35394;54.282;10.070;2023-12-29T01:31:21;8.70;;;3.40;;
35028;SDS011;35394;54.282;10.070;2023-12-29T01:31:53;7.53;;;3.00;;
35028;SDS011;35394;54.282;10.070;2023-12-29T01:32:23;7.13;;;3.08;;
35028;SDS011;35394;54.282;10.070;2023-12-29T01:32:54;6.38;;;3.00;;
35028;SDS011;35394;54.282;10.070;2023-12-29T01:33:25;7.20;;;3.00;;
35028;SDS011;35394;54.282;10.070;2023-12-29T01:33:56;6.97;;;2.90;;
35028;SDS011;35394;54.282;10.070;2023-12-29T01:34:26;8.20;;;3.00;;
35028;SDS011;35394;54.282;10.070;2023-12-29T01:35:02;9.50;;;3.05;;
35028;SDS011;35394;54.282;10.070;2023-12-29T01:35:33;9.90;;;3.20;;
35028;SDS011;35394;54.282;10.070;2023-12-29T01:36:04;7.70;;;2.97;;
35028;SDS011;35394;54.282;10.070;2023-12-29T01:36:35;8.90;;;3.20;;
35028;SDS011;35394;54.282;10.070;2023-12-29T01:37:06;8.80;;;3.10;;
35028;SDS011;35394;54.282;10.070;2023-12-29T01:37:37;7.40;;;2.90;;
35028;SDS011;35394;54.282;10.070;2023-12-29T01:38:08;9.10;;;3.00;;
35028;SDS011;35394;54.282;10.070;2023-12-29T01:38:39;7.32;;;3.20;;
35028;SDS011;35394;54.282;10.070;2023-12-29T01:39:11;7.07;;;2.97;;
35028;SDS011;35394;54.282;10.070;2023-12-29T01:39:41;6.83;;;2.70;;
35028;SDS011;35394;54.282;10.070;2023-12-29T01:40:12;7.97;;;2.90;;
35028;SDS011;35394;54.282;10.070;2023-12-29T01:40:47;9.35;;;3.15;;
35028;SDS011;35394;54.282;10.070;2023-12-29T01:41:20;8.55;;;3.10;;
35028;SDS011;35394;54.282;10.070;2023-12-29T01:41:51;7.13;;;2.90;;
35028;SDS011;35394;54.282;10.070;2023-12-29T01:42:23;7.72;;;2.95;;
35028;SDS011;35394;54.282;10.070;2023-12-29T01:42:53;9.15;;;3.10;;
35028;SDS011;35394;54.282;10.070;2023-12-29T01:43:24;8.50;;;3.08;;
35028;SDS011;35394;54.282;10.070;2023-12-29T01:44:17;8.97;;;3.40;;
35028;SDS011;35394;54.282;10.070;2023-12-29T01:44:52;10.23;;;3.40;;
35028;SDS011;35394;54.282;10.070;2023-12-29T01:45:24;9.48;;;3.47;;
35028;SDS011;35394;54.282;10.070;2023-12-29T01:45:56;9.55;;;3.10;;
35028;SDS011;35394;54.282;10.070;2023-12-29T01:46:33;7.05;;;3.10;;
35028;SDS011;35394;54.282;10.070;2023-12-29T01:47:10;8.82;;;3.30;;
35028;SDS011;35394;54.282;10.070;2023-12-29T01:47:46;9.27;;;3.47;;
35028;SDS011;35394;54.282;10.070;2023-12-29T01:48:17;9.15;;;3.20;;
35028;SDS011;35394;54.282;10.070;2023-12-29T01:48:48;8.57;;;3.33;;
35028;SDS011;35394;54.282;10.070;2023-12-29T01:49:19;8.00;;;3.25;;
35028;SDS011;35394;54.282;10.070;2023-12-29T01:49:50;10.25;;;3.20;;
35028;SDS011;35394;54.282;10.070;2023-12-29T01:50:21;10.18;;;3.70;;
35028;SDS011;35394;54.282;10.070;2023-12-29T01:50:53;9.67;;;3.33;;
35028;SDS011;35394;54.282;10.070;2023-12-29T01:51:25;10.38;;;3.20;;
35028;SDS011;35394;54.282;10.070;2023-12-29T01:51:57;8.70;;;3.53;;
35028;SDS011;35394;54.282;10.070;2023-12-29T01:52:28;11.50;;;3.33;;
35028;SDS011;35394;54.282;10.070;2023-12-29T01:52:59;8.40;;;3.20;;
35028;SDS011;35394;54.282;10.070;2023-12-29T01:53:31;8.80;;;3.10;;
35028;SDS011;35394;54.282;10.070;2023-12-29T01:54:02;7.72;;;3.25;;
35028;SDS011;35394;54.282;10.070;2023-12-29T01:54:34;8.00;;;3.20;;
35028;SDS011;35394;54.282;10.070;2023-12-29T01:55:08;9.63;;;3.40;;
35028;SDS011;35394;54.282;10.070;2023-12-29T01:55:40;12.07;;;3.20;;
35028;SDS011;35394;54.282;10.070;2023-12-29T01:56:12;10.18;;;3.20;;
35028;SDS011;35394;54.282;10.070;2023-12-29T01:56:43;6.15;;;2.80;;
35028;SDS011;35394;54.282;10.070;2023-12-29T01:57:14;8.65;;;3.03;;
35028;SDS011;35394;54.282;10.070;2023-12-29T01:57:45;8.63;;;3.03;;
35028;SDS011;35394;54.282;10.070;2023-12-29T01:58:17;8.75;;;3.20;;
35028;SDS011;35394;54.282;10.070;2023-12-29T01:58:48;10.63;;;3.35;;
35028;SDS011;35394;54.282;10.070;2023-12-29T01:59:19;8.15;;;3.00;;
35028;SDS011;35394;54.282;10.070;2023-12-29T01:59:51;7.57;;;2.78;;
35028;SDS011;35394;54.282;10.070;2023-12-29T02:00:22;7.18;;;2.90;;
35028;SDS011;35394;54.282;10.070;2023-12-29T02:00:53;7.82;;;2.90;;
35028;SDS011;35394;54.282;10.070;2023-12-29T02:01:23;10.80;;;3.10;;
35028;SDS011;35394;54.282;10.070;2023-12-29T02:01:54;8.80;;;3.10;;
35028;SDS011;35394;54.282;10.070;2023-12-29T02:02:28;8.25;;;3.10;;
35028;SDS011;35394;54.282;10.070;2023-12-29T02:02:59;9.25;;;3.10;;
35028;SDS011;35394;54.282;10.070;2023-12-29T02:03:29;9.43;;;3.30;;
35028;SDS011;35394;54.282;10.070;2023-12-29T02:04:00;9.55;;;3.10;;
35028;SDS011;35394;54.282;10.070;2023-12-29T02:04:31;10.52;;;3.10;;
35028;SDS011;35394;54.282;10.070;2023-12-29T02:05:02;8.90;;;2.92;;
35028;SDS011;35394;54.282;10.070;2023-12-29T02:05:33;8.80;;;3.07;;
35028;SDS011;35394;54.282;10.070;2023-12-29T02:06:04;9.35;;;3.00;;
35028;SDS011;35394;54.282;10.070;2023-12-29T02:06:36;10.43;;;3.17;;
35028;SDS011;35394;54.282;10.070;2023-12-29T02:07:08;8.60;;;3.30;;
35028;SDS011;35394;54.282;10.070;2023-12-29T02:07:39;9.77;;;3.00;;
35028;SDS011;35394;54.282;10.070;2023-12-29T02:08:11;9.52;;;3.15;;
35028;SDS011;35394;54.282;10.070;2023-12-29T02:08:41;6.95;;;2.90;;
35028;SDS011;35394;54.282;10.070;2023-12-29T02:09:12;9.40;;;3.20;;
35028;SDS011;35394;54.282;10.070;2023-12-29T02:09:44;9.55;;;3.20;;
35028;SDS011;35394;54.282;10.070;2023-12-29T02:10:14;8.13;;;3.05;;
35028;SDS011;35394;54.282;10.070;2023-12-29T02:10:48;8.57;;;2.97;;
35028;SDS011;35394;54.282;10.070;2023-12-29T02:11:19;8.52;;;3.03;;
35028;SDS011;35394;54.282;10.070;2023-12-29T02:11:50;7.70;;;3.25;;
35028;SDS011;35394;54.282;10.070;2023-12-29T02:12:21;8.43;;;2.90;;
35028;SDS011;35394;54.282;10.070;2023-12-29T02:12:52;8.18;;;3.00;;
35028;SDS011;35394;54.282;10.070;2023-12-29T02:13:27;7.70;;;3.03;;
35028;SDS011;35394;54.282;10.070;2023-12-29T02:13:59;8.05;;;3.03;;
35028;SDS011;35394;54.282;10.070;2023-12-29T02:14:30;8.32;;;3.20;;
35028;SDS011;35394;54.282;10.070;2023-12-29T02:15:00;9.70;;;3.15;;
35028;SDS011;35394;54.282;10.070;2023-12-29T02:15:31;9.07;;;3.13;;
35028;SDS011;35394;54.282;10.070;2023-12-29T02:16:05;9.27;;;3.03;;
35028;SDS011;35394;54.282;10.070;2023-12-29T02:17:40;11.23;;;3.40;;
35028;SDS011;35394;54.282;10.070;2023-12-29T02:18:14;11.73;;;3.60;;
35028;SDS011;35394;54.282;10.070;2023-12-29T02:18:46;11.18;;;3.33;;
35028;SDS011;35394;54.282;10.070;2023-12-29T02:19:25;11.20;;;3.53;;
35028;SDS011;35394;54.282;10.070;2023-12-29T02:20:12;10.85;;;3.55;;
35028;SDS011;35394;54.282;10.070;2023-12-29T02:20:43;8.88;;;3.17;;
35028;SDS011;35394;54.282;10.070;2023-12-29T02:21:13;10.55;;;3.58;;
35028;SDS011;35394;54.282;10.070;2023-12-29T02:21:44;11.03;;;3.40;;
35028;SDS011;35394;54.282;10.070;2023-12-29T02:22:15;8.77;;;3.30;;
35028;SDS011;35394;54.282;10.070;2023-12-29T02:22:45;11.55;;;3.25;;
35028;SDS011;35394;54.282;10.070;2023-12-29T02:23:16;11.03;;;3.70;;
35028;SDS011;35394;54.282;10.070;2023-12-29T02:23:47;10.95;;;3.60;;
35028;SDS011;35394;54.282;10.070;2023-12-29T02:24:18;9.25;;;3.40;;
35028;SDS011;35394;54.282;10.070;2023-12-29T02:24:50;9.27;;;3.30;;
35028;SDS011;35394;54.282;10.070;2023-12-29T02:25:21;9.75;;;3.60;;
35028;SDS011;35394;54.282;10.070;2023-12-29T02:25:52;11.25;;;3.63;;
35028;SDS011;35394;54.282;10.070;2023-12-29T02:26:29;8.57;;;3.50;;
35028;SDS011;35394;54.282;10.070;2023-12-29T02:27:18;10.95;;;3.50;;
35028;SDS011;35394;54.282;10.070;2023-12-29T02:28:25;10.07;;;3.70;;
35028;SDS011;35394;54.282;10.070;2023-12-29T02:28:57;9.40;;;3.53;;
35028;SDS011;35394;54.282;10.070;2023-12-29T02:29:31;12.45;;;3.53;;
35028;SDS011;35394;54.282;10.070;2023-12-29T02:31:15;13.50;;;3.92;;
35028;SDS011;35394;54.282;10.070;2023-12-29T02:31:49;12.73;;;4.10;;
35028;SDS011;35394;54.282;10.070;2023-12-29T02:32:22;9.85;;;4.20;;
35028;SDS011;35394;54.282;10.070;2023-12-29T02:32:59;10.90;;;4.03;;
35028;SDS011;35394;54.282;10.070;2023-12-29T02:33:32;15.00;;;4.28;;
35028;SDS011;35394;54.282;10.070;2023-12-29T02:34:06;11.30;;;4.18;;
35028;SDS011;35394;54.282;10.070;2023-12-29T02:34:38;13.05;;;4.32;;
35028;SDS011;35394;54.282;10.070;2023-12-29T02:35:10;12.23;;;4.28;;
35028;SDS011;35394;54.282;10.070;2023-12-29T02:35:43;12.63;;;4.25;;
35028;SDS011;35394;54.282;10.070;2023-12-29T02:36:14;13.32;;;4.65;;
35028;SDS011;35394;54.282;10.070;2023-12-29T02:36:46;12.88;;;4.63;;
35028;SDS011;35394;54.282;10.070;2023-12-29T02:37:19;11.57;;;4.35;;
35028;SDS011;35394;54.282;10.070;2023-12-29T02:37:49;11.20;;;4.47;;
35028;SDS011;35394;54.282;10.070;2023-12-29T02:38:20;10.93;;;4.30;;
35028;SDS011;35394;54.282;10.070;2023-12-29T02:38:51;15.05;;;4.50;;
35028;SDS011;35394;54.282;10.070;2023-12-29T02:39:22;11.02;;;4.10;;
35028;SDS011;35394;54.282;10.070;2023-12-29T02:39:53;13.75;;;4.63;;
35028;SDS011;35394;54.282;10.070;2023-12-29T02:40:25;14.20;;;4.40;;
35028;SDS011;35394;54.282;10.070;2023-12-29T02:40:56;15.32;;;4.40;;
35028;SDS011;35394;54.282;10.070;2023-12-29T02:41:27;10.80;;;4.07;;
35028;SDS011;35394;54.282;10.070;2023-12-29T02:41:57;10.47;;;4.10;;
35028;SDS011;35394;54.282;10.070;2023-12-29T02:42:28;16.52;;;4.50;;
35028;SDS011;35394;54.282;10.070;2023-12-29T02:42:59;11.52;;;4.00;;
35028;SDS011;35394;54.282;10.070;2023-12-29T02:43:31;13.88;;;4.70;;
35028;SDS011;35394;54.282;10.070;2023-12-29T02:44:02;14.02;;;4.30;;
35028;SDS011;35394;54.282;10.070;2023-12-29T02:44:33;11.55;;;4.63;;
35028;SDS011;35394;54.282;10.070;2023-12-29T02:45:03;13.43;;;4.53;;
35028;SDS011;35394;54.282;10.070;2023-12-29T02:45:35;12.85;;;4.30;;
35028;SDS011;35394;54.282;10.070;2023-12-29T02:46:06;12.48;;;4.30;;
35028;SDS011;35394;54.282;10.070;2023-12-29T02:46:37;12.90;;;4.07;;
35028;SDS011;35394;54.282;10.070;2023-12-29T02:47:07;11.10;;;4.10;;
35028;SDS011;35394;54.282;10.070;2023-12-29T02:47:38;12.02;;;4.05;;
35028;SDS011;35394;54.282;10.070;2023-12-29T02:48:09;13.43;;;4.05;;
35028;SDS011;35394;54.282;10.070;2023-12-29T02:48:39;11.45;;;3.92;;
35028;SDS011;35394;54.282;10.070;2023-12-29T02:49:10;14.38;;;4.07;;
35028;SDS011;35394;54.282;10.070;2023-12-29T02:49:42;14.30;;;4.00;;
35028;SDS011;35394;54.282;10.070;2023-12-29T02:50:13;10.10;;;3.50;;
35028;SDS011;35394;54.282;10.070;2023-12-29T02:50:44;10.60;;;3.85;;
35028;SDS011;35394;54.282;10.070;2023-12-29T02:51:15;11.50;;;3.80;;
35028;SDS011;35394;54.282;10.070;2023-12-29T02:51:46;14.32;;;4.07;;
35028;SDS011;35394;54.282;10.070;2023-12-29T02:52:18;13.95;;;3.92;;
35028;SDS011;35394;54.282;10.070;2023-12-29T02:52:48;14.55;;;3.67;;
35028;SDS011;35394;54.282;10.070;2023-12-29T02:53:19;12.10;;;3.57;;
35028;SDS011;35394;54.282;10.070;2023-12-29T02:53:49;12.25;;;3.45;;
35028;SDS011;35394;54.282;10.070;2023-12-29T02:54:20;12.90;;;3.75;;
35028;SDS011;35394;54.282;10.070;2023-12-29T02:54:51;9.43;;;3.30;;
35028;SDS011;35394;54.282;10.070;2023-12-29T02:55:21;12.48;;;3.63;;
35028;SDS011;35394;54.282;10.070;2023-12-29T02:55:52;11.07;;;3.40;;
35028;SDS011;35394;54.282;10.070;2023-12-29T02:56:22;8.53;;;2.97;;
35028;SDS011;35394;54.282;10.070;2023-12-29T02:56:53;12.30;;;3.20;;
35028;SDS011;35394;54.282;10.070;2023-12-29T02:57:24;9.35;;;3.20;;
35028;SDS011;35394;54.282;10.070;2023-12-29T02:57:54;11.13;;;3.03;;
35028;SDS011;35394;54.282;10.070;2023-12-29T02:58:26;9.98;;;3.00;;
35028;SDS011;35394;54.282;10.070;2023-12-29T02:58:56;10.33;;;3.00;;
35028;SDS011;35394;54.282;10.070;2023-12-29T02:59:27;12.18;;;3.15;;
35028;SDS011;35394;54.282;10.070;2023-12-29T02:59:58;8.30;;;2.83;;
35028;SDS011;35394;54.282;10.070;2023-12-29T03:00:28;9.75;;;2.95;;
35028;SDS011;35394;54.282;10.070;2023-12-29T03:00:59;10.73;;;3.08;;
35028;SDS011;35394;54.282;10.070;2023-12-29T03:01:30;15.00;;;3.42;;
35028;SDS011;35394;54.282;10.070;2023-12-29T03:02:01;11.25;;;3.15;;
35028;SDS011;35394;54.282;10.070;2023-12-29T03:02:31;11.13;;;3.10;;
35028;SDS011;35394;54.282;10.070;2023-12-29T03:03:03;10.68;;;3.00;;
35028;SDS011;35394;54.282;10.070;2023-12-29T03:03:34;9.68;;;2.80;;
35028;SDS011;35394;54.282;10.070;2023-12-29T03:04:04;8.93;;;2.77;;
35028;SDS011;35394;54.282;10.070;2023-12-29T03:04:35;10.73;;;2.90;;
35028;SDS011;35394;54.282;10.070;2023-12-29T03:05:06;8.73;;;2.67;;
35028;SDS011;35394;54.282;10.070;2023-12-29T03:05:37;13.35;;;3.10;;
35028;SDS011;35394;54.282;10.070;2023-12-29T03:06:07;12.57;;;3.07;;
35028;SDS011;35394;54.282;10.070;2023-12-29T03:06:39;10.13;;;3.10;;
35028;SDS011;35394;54.282;10.070;2023-12-29T03:07:11;10.93;;;3.33;;
35028;SDS011;35394;54.282;10.070;2023-12-29T03:07:42;12.07;;;3.00;;
35028;SDS011;35394;54.282;10.070;2023-12-29T03:08:12;10.90;;;3.10;;
35028;SDS011;35394;54.282;10.070;2023-12-29T03:08:43;9.07;;;2.70;;